Time;durP1;ratioP1;P1;durP2;ratioP2;P2;SDS_P1;SDS_P2;PMS_P1;PMS_P2;Temp;Humidity;BMP_temperature;BMP_pressure;BME280_temperature;BME280_humidity;BME280_pressure;Samples;Min_cycle;Max_cycle;Signal;HPM_P1;HPM_P2
2022/05/08 00:01:41;;;;;;;10.80;5.68;;;;;;;10.52;84.86;102906.81;5099350;28;20040;-72
2022/05/08 00:04:07;;;;;;;12.35;6.45;;;;;;;10.44;85.47;102909.91;5117331;28;20032;-73
2022/05/08 00:06:32;;;;;;;11.77;5.07;;;;;;;10.36;85.04;102899.72;5099425;28;20038;-72
2022/05/08 00:08:58;;;;;;;13.85;5.50;;;;;;;10.29;85.41;102900.13;5099360;28;20035;-72
2022/05/08 00:11:23;;;;;;;14.48;5.55;;;;;;;10.22;85.78;102896.94;5082917;28;20092;-72
2022/05/08 00:13:49;;;;;;;12.10;5.43;;;;;;;10.14;86.35;102894.69;5099169;28;20036;-72
2022/05/08 00:16:14;;;;;;;12.70;5.53;;;;;;;10.01;86.38;102899.84;5116872;28;20035;-72
2022/05/08 00:18:40;;;;;;;20.50;6.55;;;;;;;9.94;86.84;102900.25;5117417;28;20452;-72
2022/05/08 00:21:06;;;;;;;14.25;5.60;;;;;;;9.87;87.26;102902.41;5098967;28;20422;-72
2022/05/08 00:23:32;;;;;;;11.18;5.20;;;;;;;9.83;87.50;102899.06;5117173;28;20039;-72
2022/05/08 00:25:58;;;;;;;12.57;5.40;;;;;;;9.75;87.10;102897.75;5082818;28;20152;-71
2022/05/08 00:28:23;;;;;;;13.27;5.20;;;;;;;9.65;86.74;102900.06;5081871;28;20084;-72
2022/05/08 00:30:48;;;;;;;14.05;5.28;;;;;;;9.52;87.07;102890.09;5117473;28;20050;-72
2022/05/08 00:33:14;;;;;;;17.95;5.80;;;;;;;9.41;87.79;102897.78;5098797;28;20408;-72
2022/05/08 00:35:39;;;;;;;15.02;5.70;;;;;;;9.26;88.25;102898.59;5116729;28;20039;-72
2022/05/08 00:38:05;;;;;;;15.93;6.38;;;;;;;9.11;88.68;102902.91;5117838;28;20042;-72
2022/05/08 00:40:35;;;;;;;14.98;5.82;;;;;;;8.97;88.89;102903.59;5098684;28;20468;-72
2022/05/08 00:43:28;;;;;;;19.15;6.25;;;;;;;8.82;89.11;102902.56;5117385;28;20024;-71
2022/05/08 00:45:55;;;;;;;20.05;6.88;;;;;;;8.69;90.24;102906.75;5098944;28;20071;-71
2022/05/08 00:48:21;;;;;;;16.27;5.88;;;;;;;8.55;90.24;102907.44;5116992;28;20032;-73
2022/05/08 00:50:46;;;;;;;14.48;6.07;;;;;;;8.45;90.74;102910.56;5117073;28;20098;-73
2022/05/08 00:53:12;;;;;;;10.65;5.68;;;;;;;8.35;90.79;102911.06;5116655;28;20119;-72
2022/05/08 00:55:38;;;;;;;12.40;6.18;;;;;;;8.23;91.35;102913.34;5116983;28;20436;-72
2022/05/08 00:58:05;;;;;;;21.92;7.93;;;;;;;8.15;92.09;102904.91;5116458;28;20028;-71
2022/05/08 01:00:31;;;;;;;26.05;7.47;;;;;;;8.07;92.74;102910.56;5116524;28;20375;-71
2022/05/08 01:02:59;;;;;;;22.00;6.88;;;;;;;8.01;93.52;102910.84;5116343;28;20036;-72
2022/05/08 01:05:24;;;;;;;18.20;6.13;;;;;;;7.97;93.94;102913.72;5081598;28;20032;-72
2022/05/08 01:07:50;;;;;;;20.23;6.13;;;;;;;7.90;93.79;102911.34;5097760;28;20408;-77
2022/05/08 01:10:16;;;;;;;18.63;6.57;;;;;;;7.86;93.95;102901.81;5096010;28;20089;-76
2022/05/08 01:12:44;;;;;;;23.75;6.07;;;;;;;7.80;94.25;102910.06;5096546;28;20456;-75
2022/05/08 01:15:18;;;;;;;24.83;6.13;;;;;;;7.73;93.73;102901.53;5114659;28;20028;-75
2022/05/08 01:17:45;;;;;;;21.75;5.90;;;;;;;7.66;93.75;102908.03;5115101;28;20039;-75
2022/05/08 01:20:11;;;;;;;21.65;6.88;;;;;;;7.60;93.79;102905.69;5096364;28;20027;-75
2022/05/08 01:22:37;;;;;;;20.90;5.97;;;;;;;7.55;94.34;102903.25;5096460;28;20068;-75
2022/05/08 01:25:03;;;;;;;24.38;6.65;;;;;;;7.51;94.78;102904.28;5114811;28;20089;-76
2022/05/08 01:27:28;;;;;;;17.95;5.72;;;;;;;7.43;95.13;102900.25;5114569;28;20031;-75
2022/05/08 01:29:54;;;;;;;19.35;5.82;;;;;;;7.36;95.00;102903.19;5096423;28;20155;-75
2022/05/08 01:32:19;;;;;;;22.20;6.03;;;;;;;7.30;95.20;102900.81;5114683;28;20023;-76
2022/05/08 01:34:45;;;;;;;28.23;7.78;;;;;;;7.29;95.94;102893.78;5114063;28;20114;-75
2022/05/08 01:37:11;;;;;;;30.58;7.63;;;;;;;7.23;96.33;102897.56;5114603;28;20143;-75
2022/05/08 01:39:36;;;;;;;17.58;5.93;;;;;;;7.21;96.86;102904.72;5113988;28;20386;-76
2022/05/08 01:42:04;;;;;;;23.73;5.82;;;;;;;7.18;97.21;102893.38;5113927;28;20046;-76
2022/05/08 01:44:30;;;;;;;21.55;5.80;;;;;;;7.14;97.45;102903.25;5095698;28;20118;-76
2022/05/08 01:49:41;;;;;;;20.10;5.75;;;;;;;7.12;98.16;102909.53;5114525;28;20074;-75
2022/05/08 01:52:07;;;;;;;17.45;5.65;;;;;;;7.07;98.32;102907.94;5113932;28;20035;-76
2022/05/08 01:54:33;;;;;;;21.67;6.55;;;;;;;7.06;98.44;102915.94;5114013;28;20072;-76
2022/05/08 01:56:58;;;;;;;20.02;5.30;;;;;;;7.01;98.45;102921.44;5113559;28;20118;-75
2022/05/08 01:59:24;;;;;;;27.17;6.22;;;;;;;6.98;98.43;102915.44;5113326;28;20092;-76
2022/05/08 02:01:49;;;;;;;23.15;6.32;;;;;;;6.95;98.51;102912.91;5113644;28;20028;-76
2022/05/08 02:04:18;;;;;;;29.40;6.40;;;;;;;6.91;98.73;102912.16;5114090;28;20454;-75
2022/05/08 02:06:43;;;;;;;25.17;5.85;;;;;;;6.89;98.89;102917.53;5113487;28;20031;-76
2022/05/08 02:09:09;;;;;;;19.05;6.13;;;;;;;6.83;98.75;102911.63;5095443;28;20043;-75
2022/05/08 02:11:34;;;;;;;20.77;5.70;;;;;;;6.83;99.13;102909.00;5113381;28;20466;-76
2022/05/08 02:14:01;;;;;;;22.17;5.82;;;;;;;6.80;99.47;102911.75;5095447;28;20036;-76
2022/05/08 02:16:26;;;;;;;23.10;5.80;;;;;;;6.79;99.32;102912.69;5113293;28;20073;-76
2022/05/08 02:18:52;;;;;;;21.02;5.70;;;;;;;6.74;99.52;102914.66;5113034;28;20043;-75
2022/05/08 02:21:17;;;;;;;23.05;6.07;;;;;;;6.75;99.91;102917.25;5094503;28;20039;-76
2022/05/08 02:23:43;;;;;;;21.60;5.13;;;;;;;6.71;100.00;102920.94;5077986;28;20379;-75
2022/05/08 02:26:08;;;;;;;26.40;5.82;;;;;;;6.69;99.94;102920.16;5113342;28;20093;-77
2022/05/08 02:28:34;;;;;;;21.00;5.53;;;;;;;6.66;100.00;102921.13;5094595;28;20036;-76
2022/05/08 02:30:59;;;;;;;27.58;6.38;;;;;;;6.66;100.00;102918.50;5113074;28;20060;-76
2022/05/08 02:33:25;;;;;;;20.17;5.25;;;;;;;6.60;100.00;102918.75;5113442;28;20111;-76
2022/05/08 02:35:50;;;;;;;28.25;5.65;;;;;;;6.58;100.00;102920.56;5112818;28;20508;-76
2022/05/08 02:38:15;;;;;;;27.45;5.10;;;;;;;6.53;100.00;102922.56;5113242;28;20034;-76
2022/05/08 02:40:41;;;;;;;23.23;5.28;;;;;;;6.48;100.00;102925.38;5113319;28;20149;-76
2022/05/08 02:43:06;;;;;;;30.17;5.50;;;;;;;6.47;100.00;102930.72;5112718;28;20035;-75
2022/05/08 02:45:31;;;;;;;25.88;5.60;;;;;;;6.44;100.00;102920.28;5094826;28;20063;-76
2022/05/08 02:47:57;;;;;;;28.10;5.22;;;;;;;6.38;100.00;102926.66;5094783;28;20475;-76
2022/05/08 02:50:24;;;;;;;28.58;5.82;;;;;;;6.42;100.00;102930.03;5113452;28;20093;-76
2022/05/08 02:52:49;;;;;;;24.33;5.45;;;;;;;6.37;100.00;102932.88;5113059;28;20024;-76
2022/05/08 03:00:45;;;;;;;24.38;4.68;;;;;;;6.32;100.00;102934.84;5112993;28;20042;-75
2022/05/08 03:03:11;;;;;;;17.52;4.28;;;;;;;6.31;100.00;102933.97;5094648;28;20072;-75
2022/05/08 03:05:37;;;;;;;22.58;4.63;;;;;;;6.29;100.00;102932.31;5112467;28;20023;-75
2022/05/08 03:08:05;;;;;;;28.27;5.18;;;;;;;6.27;100.00;102937.66;5112536;28;20051;-76
2022/05/08 03:11:25;;;;;;;33.22;5.57;;;;;;;6.24;100.00;102937.78;5077522;28;20055;-75
2022/05/08 03:13:16;;;;;;;29.77;5.80;;;;;;;6.22;100.00;102938.75;5096979;28;20046;-75
2022/05/08 03:15:41;;;;;;;24.17;5.32;;;;;;;6.18;100.00;102940.69;5111951;28;20424;-75
2022/05/08 03:18:07;;;;;;;26.60;4.82;;;;;;;6.16;100.00;102939.84;5094385;28;20035;-74
2022/05/08 03:20:33;;;;;;;37.83;4.68;;;;;;;6.17;100.00;102945.09;5094080;28;20031;-75
2022/05/08 03:22:59;;;;;;;27.55;4.38;;;;;;;6.18;100.00;102944.16;5093975;28;20127;-75
2022/05/08 03:25:24;;;;;;;26.50;4.30;;;;;;;6.16;100.00;102946.00;5112155;28;20131;-75
2022/05/08 03:27:50;;;;;;;19.30;4.18;;;;;;;6.12;100.00;102938.25;5093913;28;20097;-75
2022/05/08 03:30:15;;;;;;;27.63;5.63;;;;;;;6.06;100.00;102939.38;5076790;28;20464;-75
2022/05/08 03:32:40;;;;;;;24.50;4.20;;;;;;;6.04;100.00;102940.34;5112000;28;20039;-75
2022/05/08 03:35:06;;;;;;;20.38;4.78;;;;;;;5.98;100.00;102936.97;5112637;28;20032;-74
2022/05/08 03:37:33;;;;;;;24.73;5.50;;;;;;;5.97;100.00;102950.25;5090688;28;20059;-75
2022/05/08 03:39:59;;;;;;;17.08;4.50;;;;;;;6.00;100.00;102950.13;5112089;28;20125;-75
2022/05/08 03:42:24;;;;;;;28.83;4.55;;;;;;;6.05;100.00;102952.63;5111943;28;20115;-75
2022/05/08 03:44:53;;;;;;;22.50;4.78;;;;;;;6.12;100.00;102957.63;5110975;28;20035;-76
2022/05/08 03:47:19;;;;;;;21.67;5.72;;;;;;;6.15;100.00;102952.22;5112052;28;20031;-76
2022/05/08 03:49:44;;;;;;;21.90;4.05;;;;;;;6.16;100.00;102953.94;5112419;28;20114;-75
2022/05/08 03:52:10;;;;;;;25.35;5.15;;;;;;;6.17;100.00;102952.16;5110496;28;20031;-75
2022/05/08 03:54:35;;;;;;;17.95;3.83;;;;;;;6.21;100.00;102950.25;5093576;28;20024;-75
2022/05/08 03:57:00;;;;;;;20.75;5.18;;;;;;;6.25;100.00;102951.88;5093711;28;20134;-75
2022/05/08 03:59:26;;;;;;;28.98;4.97;;;;;;;6.25;100.00;102957.16;5111835;28;20084;-75
2022/05/08 04:01:54;;;;;;;32.08;5.32;;;;;;;6.32;100.00;102958.63;5112047;28;20039;-76
2022/05/08 04:04:20;;;;;;;21.70;4.80;;;;;;;6.40;100.00;102961.84;5111888;28;20028;-75
2022/05/08 04:06:45;;;;;;;20.42;4.32;;;;;;;6.50;100.00;102965.84;5110572;28;20414;-76
2022/05/08 04:09:11;;;;;;;19.48;4.90;;;;;;;6.59;100.00;102961.97;5110701;28;20032;-75
2022/05/08 04:11:36;;;;;;;28.90;5.10;;;;;;;6.68;100.00;102971.34;5111944;28;20463;-76
2022/05/08 04:14:01;;;;;;;30.02;5.57;;;;;;;6.78;100.00;102972.69;5094016;28;20039;-76
2022/05/08 04:16:27;;;;;;;27.63;4.32;;;;;;;6.91;100.00;102974.81;5110209;28;20043;-75
2022/05/08 04:18:52;;;;;;;18.50;4.85;;;;;;;6.98;100.00;102971.84;5111666;28;20042;-76
2022/05/08 04:21:18;;;;;;;20.88;4.07;;;;;;;7.05;99.32;102967.19;5110224;28;20060;-76
2022/05/08 04:26:29;;;;;;;21.27;4.22;;;;;;;7.14;98.10;102977.38;5111506;28;20515;-75
2022/05/08 04:28:54;;;;;;;21.17;4.43;;;;;;;7.16;97.50;102970.22;5111413;28;20028;-76
2022/05/08 04:31:20;;;;;;;20.67;4.68;;;;;;;7.21;97.26;102972.69;5111563;28;20471;-75
2022/05/08 04:33:45;;;;;;;31.17;4.63;;;;;;;7.24;97.38;102980.53;5110859;28;20062;-75
2022/05/08 04:36:11;;;;;;;28.73;4.72;;;;;;;7.28;97.03;102973.28;5111609;28;20044;-76
2022/05/08 04:38:37;;;;;;;21.70;4.00;;;;;;;7.30;96.35;102979.38;5112182;28;20074;-75
2022/05/08 04:41:02;;;;;;;26.15;4.85;;;;;;;7.32;95.82;102975.75;5093146;28;20108;-75
2022/05/08 04:43:27;;;;;;;16.73;3.95;;;;;;;7.35;95.48;102974.75;5111955;28;20031;-75
2022/05/08 04:45:52;;;;;;;22.67;4.10;;;;;;;7.37;95.40;102983.50;5095066;28;20042;-75
2022/05/08 04:48:18;;;;;;;19.50;4.00;;;;;;;7.38;95.40;102991.38;5096597;28;20108;-75
2022/05/08 04:50:43;;;;;;;25.23;4.95;;;;;;;7.40;95.24;102988.66;5115265;28;20027;-76
2022/05/08 04:53:09;;;;;;;20.77;4.57;;;;;;;7.46;95.62;102993.69;5096958;28;20031;-75
2022/05/08 04:55:34;;;;;;;16.33;3.70;;;;;;;7.49;95.42;102995.34;5096553;28;20036;-75
2022/05/08 04:57:59;;;;;;;25.35;4.50;;;;;;;7.52;94.69;102998.72;5115121;28;20036;-75
2022/05/08 05:00:26;;;;;;;22.02;3.97;;;;;;;7.58;94.59;103003.78;5114680;28;20118;-75
2022/05/08 05:02:52;;;;;;;21.35;4.20;;;;;;;7.63;94.04;103005.34;5096356;28;20061;-76
2022/05/08 05:05:17;;;;;;;30.55;4.95;;;;;;;7.70;93.72;103005.03;5114756;28;20098;-76
2022/05/08 05:07:42;;;;;;;22.90;4.25;;;;;;;7.76;93.35;103012.69;5114469;28;20489;-76
2022/05/08 05:10:10;;;;;;;27.55;4.60;;;;;;;7.82;92.68;103014.19;5114346;28;20127;-75
2022/05/08 05:12:35;;;;;;;19.50;4.75;;;;;;;7.87;92.00;103011.38;5095872;28;20395;-75
2022/05/08 05:15:01;;;;;;;20.80;4.65;;;;;;;7.92;91.53;103012.00;5113971;28;20031;-75
2022/05/08 05:17:27;;;;;;;29.60;5.35;;;;;;;7.93;91.49;103011.94;5095632;28;20027;-76
2022/05/08 05:19:52;;;;;;;19.13;4.15;;;;;;;8.01;91.76;103024.00;5096210;28;20028;-77
2022/05/08 05:22:24;;;;;;;25.67;4.50;;;;;;;8.05;91.98;103013.19;5114328;28;20134;-75
2022/05/08 05:24:50;;;;;;;24.10;4.28;;;;;;;8.04;91.20;103013.25;5079358;28;20380;-75
2022/05/08 05:27:15;;;;;;;34.30;4.72;;;;;;;8.08;91.50;103025.44;5095961;28;20031;-75
2022/05/08 05:29:40;;;;;;;26.70;4.45;;;;;;;8.11;91.53;103025.31;5114162;28;20139;-75
2022/05/08 05:32:06;;;;;;;17.92;4.40;;;;;;;8.19;91.80;103030.25;5079018;28;20440;-75
2022/05/08 05:34:32;;;;;;;26.88;4.50;;;;;;;8.25;91.41;103028.16;5078867;28;20038;-77
2022/05/08 05:36:57;;;;;;;21.35;4.30;;;;;;;8.36;91.24;103027.69;5104863;28;20051;-76
2022/05/08 05:39:24;;;;;;;26.80;4.78;;;;;;;8.48;90.66;103021.00;5112762;28;20036;-76
2022/05/08 05:41:50;;;;;;;23.25;4.38;;;;;;;8.54;89.78;103027.78;5112511;28;20043;-76
2022/05/08 05:44:15;;;;;;;20.70;4.10;;;;;;;8.50;88.09;103028.88;5112497;28;20036;-75
2022/05/08 05:49:27;;;;;;;27.63;4.65;;;;;;;8.52;88.33;103025.19;5098971;28;20109;-78
2022/05/08 05:51:53;;;;;;;22.17;3.92;;;;;;;8.52;88.91;103029.66;5113849;28;20134;-77
2022/05/08 05:54:21;;;;;;;27.98;4.32;;;;;;;8.54;88.93;103027.78;5112431;28;20039;-77
2022/05/08 05:56:47;;;;;;;20.92;3.88;;;;;;;8.54;87.58;103035.75;5113378;28;20038;-77
2022/05/08 05:59:13;;;;;;;31.75;4.68;;;;;;;8.55;86.68;103029.50;5112184;28;20036;-77
2022/05/08 06:01:38;;;;;;;20.40;4.50;;;;;;;8.60;86.73;103032.81;5094860;28;20130;-77
2022/05/08 06:04:03;;;;;;;26.67;4.30;;;;;;;8.60;85.72;103043.44;5113292;28;20030;-78
2022/05/08 06:06:29;;;;;;;25.10;4.57;;;;;;;8.68;86.83;103043.06;5111777;28;20031;-77
2022/05/08 06:08:54;;;;;;;26.00;4.70;;;;;;;8.77;86.46;103050.59;5094776;28;20122;-78
2022/05/08 06:11:19;;;;;;;19.98;3.95;;;;;;;8.91;86.41;103040.19;5112459;28;20145;-77
2022/05/08 06:13:45;;;;;;;23.50;5.03;;;;;;;9.11;86.01;103049.81;5113049;28;20114;-77
2022/05/08 06:16:11;;;;;;;18.70;4.35;;;;;;;9.25;82.88;103054.44;5111917;28;20448;-77
2022/05/08 06:18:36;;;;;;;19.02;4.20;;;;;;;9.40;82.75;103050.16;5111723;28;20032;-75
2022/05/08 06:21:02;;;;;;;26.27;4.18;;;;;;;9.47;81.38;103045.41;5112858;28;20439;-77
2022/05/08 06:23:27;;;;;;;27.05;4.45;;;;;;;9.65;82.22;103048.91;5113170;28;20034;-77
2022/05/08 06:25:52;;;;;;;25.33;4.10;;;;;;;9.76;81.27;103048.34;5111294;28;20032;-77
2022/05/08 06:28:19;;;;;;;23.27;4.50;;;;;;;9.84;80.63;103055.00;5111253;28;20027;-76
2022/05/08 06:30:48;;;;;;;21.92;4.47;;;;;;;9.76;79.01;103054.50;5113056;28;20053;-77
2022/05/08 06:33:13;;;;;;;19.63;4.03;;;;;;;9.91;79.73;103052.84;5112872;28;20035;-75
2022/05/08 06:35:39;;;;;;;20.45;4.05;;;;;;;9.93;78.50;103047.44;5111187;28;20035;-76
2022/05/08 06:38:11;;;;;;;27.35;4.80;;;;;;;10.03;78.43;103056.66;5113230;28;20019;-76
2022/05/08 06:40:37;;;;;;;26.00;3.80;;;;;;;10.23;78.92;103055.63;5112741;28;20458;-76
2022/05/08 06:43:03;;;;;;;17.92;4.00;;;;;;;10.42;77.39;103058.19;5077570;28;20108;-76
2022/05/08 06:45:29;;;;;;;23.10;4.10;;;;;;;10.47;75.74;103058.78;5094690;28;20036;-76
2022/05/08 06:47:54;;;;;;;26.50;3.80;;;;;;;10.47;76.47;103064.09;5112411;28;20521;-81
2022/05/08 06:50:20;;;;;;;24.08;4.47;;;;;;;10.58;75.09;103064.38;5077507;28;20027;-78
2022/05/08 06:52:45;;;;;;;14.45;3.20;;;;;;;10.66;73.24;103065.72;5094255;28;20028;-75
2022/05/08 06:55:12;;;;;;;15.65;3.30;;;;;;;10.79;73.94;103065.91;5094547;28;20081;-76
2022/05/08 06:57:37;;;;;;;28.52;4.05;;;;;;;11.06;72.41;103072.34;5077200;28;20035;-76
2022/05/08 07:02:48;;;;;;;16.20;4.22;;;;;;;11.52;70.30;103070.63;5112395;28;20053;-75
2022/05/08 07:05:13;;;;;;;13.15;3.47;;;;;;;11.71;67.20;103070.38;5094043;28;20027;-76
2022/05/08 07:07:39;;;;;;;15.90;3.75;;;;;;;11.82;67.36;103074.13;5111632;28;20032;-76
2022/05/08 07:10:04;;;;;;;17.08;3.55;;;;;;;11.86;67.08;103073.94;5093630;28;20034;-76
2022/05/08 07:12:30;;;;;;;21.30;3.97;;;;;;;12.14;67.52;103078.47;5076927;28;20039;-76
2022/05/08 07:14:55;;;;;;;21.35;3.45;;;;;;;12.40;66.95;103076.84;5094664;28;20451;-76
2022/05/08 07:17:24;;;;;;;16.63;3.90;;;;;;;12.67;65.96;103082.25;5093476;28;20141;-76
2022/05/08 07:19:50;;;;;;;17.40;3.22;;;;;;;12.94;64.71;103081.41;5112654;28;20031;-77
2022/05/08 07:22:19;;;;;;;17.35;3.80;;;;;;;12.63;61.92;103075.41;5093745;28;20030;-76
2022/05/08 07:24:44;;;;;;;18.77;3.88;;;;;;;12.65;62.96;103084.16;5077440;28;20035;-76
2022/05/08 07:27:11;;;;;;;16.77;3.67;;;;;;;12.33;62.83;103073.72;5093945;28;20345;-77
2022/05/08 07:29:45;;;;;;;26.08;3.90;;;;;;;12.38;63.36;103084.09;5112057;28;20031;-77
2022/05/08 07:32:11;;;;;;;21.65;4.65;;;;;;;12.32;63.45;103087.16;5077306;28;20066;-76
2022/05/08 07:37:21;;;;;;;21.52;4.43;;;;;;;12.12;62.65;103088.38;5106769;28;20109;-76
2022/05/08 07:39:46;;;;;;;19.17;3.33;;;;;;;12.09;62.85;103088.56;5110850;28;20036;-76
2022/05/08 07:42:12;;;;;;;17.33;3.58;;;;;;;12.15;64.08;103091.72;5110387;28;20459;-77
2022/05/08 07:44:37;;;;;;;20.95;3.92;;;;;;;12.33;62.27;103087.06;5112204;28;20040;-76
2022/05/08 07:47:03;;;;;;;17.50;3.65;;;;;;;12.56;63.05;103087.41;5111945;28;20428;-77
2022/05/08 07:49:28;;;;;;;25.73;5.20;;;;;;;12.74;61.97;103089.88;5111941;28;20430;-75
2022/05/08 07:51:54;;;;;;;16.48;3.33;;;;;;;12.80;60.17;103094.81;5111704;28;20059;-76
2022/05/08 07:54:20;;;;;;;19.92;3.65;;;;;;;12.84;59.55;103093.69;5110223;28;20034;-76
2022/05/08 07:56:46;;;;;;;16.95;3.65;;;;;;;12.64;60.78;103101.13;5110091;28;20118;-76
2022/05/08 07:59:11;;;;;;;13.77;3.63;;;;;;;12.70;61.82;103099.88;5110476;28;20088;-77
2022/05/08 08:01:36;;;;;;;19.02;3.85;;;;;;;12.93;62.33;103093.06;5110150;28;20061;-74
2022/05/08 08:04:04;;;;;;;17.00;4.00;;;;;;;13.38;60.28;103103.53;5110257;28;20032;-74
2022/05/08 08:06:30;;;;;;;17.15;3.38;;;;;;;13.58;60.09;103099.50;5111924;28;20035;-74
2022/05/08 08:08:56;;;;;;;18.58;3.55;;;;;;;13.53;59.26;103088.28;5110005;28;20118;-74
2022/05/08 08:11:21;;;;;;;16.90;3.67;;;;;;;13.85;59.70;103099.47;5109675;28;20494;-72
2022/05/08 08:13:46;;;;;;;17.58;3.88;;;;;;;14.33;58.29;103090.78;5111442;28;20027;-73
2022/05/08 08:16:12;;;;;;;16.63;3.28;;;;;;;14.62;55.76;103082.50;5093408;28;20036;-74
2022/05/08 08:18:42;;;;;;;14.70;3.50;;;;;;;15.37;56.05;103085.97;5111141;28;20035;-73
2022/05/08 08:21:12;;;;;;;18.77;3.70;;;;;;;15.26;53.80;103089.47;5113794;28;20039;-75
2022/05/08 08:23:39;;;;;;;17.98;3.50;;;;;;;15.58;54.91;103081.63;5097888;28;20039;-74
2022/05/08 08:26:04;;;;;;;19.38;3.63;;;;;;;15.57;51.91;103084.44;5115270;28;20032;-74
2022/05/08 08:28:30;;;;;;;20.30;4.18;;;;;;;15.80;52.86;103086.25;5115337;27;20024;-76
2022/05/08 08:30:55;;;;;;;13.25;3.13;;;;;;;16.12;49.38;103090.94;5115283;28;20428;-76
2022/05/08 08:33:22;;;;;;;11.02;2.88;;;;;;;16.25;50.25;103089.97;5096844;28;20056;-75
2022/05/08 08:35:47;;;;;;;13.35;3.50;;;;;;;16.30;49.41;103095.81;5096751;28;20067;-75
2022/05/08 08:38:14;;;;;;;15.90;2.92;;;;;;;16.57;48.78;103092.75;5115769;28;20474;-77
2022/05/08 08:40:41;;;;;;;13.02;3.03;;;;;;;16.32;47.26;103094.72;5096918;28;20085;-77
2022/05/08 08:43:09;;;;;;;12.13;2.90;;;;;;;16.69;46.30;103094.44;5096814;28;20093;-76
2022/05/08 08:48:28;;;;;;;16.55;3.53;;;;;;;17.32;46.52;103090.28;5114850;28;20037;-75
2022/05/08 08:50:58;;;;;;;12.70;3.10;;;;;;;17.34;46.35;103086.44;5114893;28;20038;-75
2022/05/08 08:53:24;;;;;;;15.38;3.00;;;;;;;17.32;44.26;103088.44;5115161;28;20175;-75
2022/05/08 08:55:50;;;;;;;12.35;2.70;;;;;;;17.21;44.19;103086.66;5096021;28;20024;-76
2022/05/08 08:58:17;;;;;;;11.32;2.72;;;;;;;17.61;44.93;103085.94;5096965;28;20032;-76
2022/05/08 09:00:43;;;;;;;14.85;2.75;;;;;;;17.82;45.27;103084.25;5080060;28;20031;-76
2022/05/08 09:03:08;;;;;;;14.23;3.10;;;;;;;17.84;44.10;103077.75;5079215;28;20028;-76
2022/05/08 09:05:35;;;;;;;12.90;2.58;;;;;;;19.03;40.51;103089.69;5096647;28;20459;-76
2022/05/08 09:08:01;;;;;;;14.07;3.22;;;;;;;19.29;39.41;103086.44;5114789;28;20092;-74
2022/05/08 09:10:28;;;;;;;9.32;2.80;;;;;;;19.45;39.06;103079.59;5114837;28;20028;-74
2022/05/08 09:12:56;;;;;;;10.68;2.80;;;;;;;20.60;37.25;103087.50;5114755;28;20035;-75
2022/05/08 09:15:36;;;;;;;11.75;2.78;;;;;;;21.40;34.40;103084.06;5114690;28;20099;-74
2022/05/08 09:18:04;;;;;;;15.00;2.97;;;;;;;21.46;34.41;103085.31;5115024;28;20079;-74
2022/05/08 09:20:32;;;;;;;12.70;3.10;;;;;;;21.79;35.05;103082.88;5114609;28;20400;-74
2022/05/08 09:22:57;;;;;;;9.68;2.80;;;;;;;22.75;32.65;103078.22;5096232;28;20050;-74
2022/05/08 09:25:23;;;;;;;9.27;2.83;;;;;;;22.68;32.10;103084.31;5114673;28;20110;-76
2022/05/08 09:27:59;;;;;;;7.05;2.53;;;;;;;22.81;32.05;103083.88;5114715;28;20028;-76
2022/05/08 09:30:26;;;;;;;11.80;3.13;;;;;;;22.63;31.76;103077.69;5114388;28;20530;-75
2022/05/08 09:32:51;;;;;;;8.82;2.30;;;;;;;23.31;32.51;103086.66;5096112;28;20225;-75
2022/05/08 09:35:18;;;;;;;13.45;2.80;;;;;;;23.35;31.35;103086.16;5095565;28;20028;-83
2022/05/08 09:37:53;;;;;;;11.52;2.80;;;;;;;23.30;30.92;103074.94;5113904;28;20062;-76
2022/05/08 09:40:21;;;;;;;9.05;2.75;;;;;;;23.04;30.27;103080.50;5114630;28;20035;-77
2022/05/08 09:42:49;;;;;;;17.65;3.38;;;;;;;23.44;31.56;103081.56;5114352;28;20146;-74
2022/05/08 09:45:15;;;;;;;10.18;2.83;;;;;;;23.50;30.10;103071.88;5113988;28;20027;-75
2022/05/08 09:47:45;;;;;;;13.88;2.92;;;;;;;23.92;30.71;103077.09;5114113;28;20038;-77
2022/05/08 09:50:12;;;;;;;8.38;2.70;;;;;;;24.47;30.11;103079.94;5095824;28;20035;-77
2022/05/08 09:52:41;;;;;;;11.13;2.78;;;;;;;24.34;29.54;103072.34;5095433;28;20038;-74
2022/05/08 09:55:09;;;;;;;11.40;3.10;;;;;;;24.91;27.24;103071.19;5095515;28;20340;-74
2022/05/08 09:57:35;;;;;;;8.57;2.55;;;;;;;24.21;29.91;103077.50;5113612;28;20051;-76
2022/05/08 10:00:01;;;;;;;8.98;2.50;;;;;;;23.79;29.64;103076.75;5095455;28;20035;-76
2022/05/08 10:02:26;;;;;;;10.23;3.20;;;;;;;23.54;29.96;103070.50;5095213;28;20066;-75
2022/05/08 10:04:53;;;;;;;10.65;2.50;;;;;;;23.86;28.43;103077.78;5113636;28;20061;-75
2022/05/08 10:07:20;;;;;;;11.32;2.70;;;;;;;24.03;30.71;103066.88;5113661;28;20078;-74
2022/05/08 10:15:34;;;;;;;7.13;2.45;;;;;;;23.56;30.60;103072.03;4999059;28;20050;-74
2022/05/08 10:18:22;;;;;;;11.02;2.72;;;;;;;23.90;30.19;103065.56;5092092;28;20032;-74
2022/05/08 10:21:12;;;;;;;11.98;2.75;;;;;;;23.30;29.75;103063.22;5097357;28;20448;-77
2022/05/08 10:23:42;;;;;;;12.13;2.80;;;;;;;23.41;30.44;103052.03;5113406;28;20122;-77
2022/05/08 10:26:16;;;;;;;9.88;2.58;;;;;;;24.08;29.87;103065.31;5095019;28;20035;-77
2022/05/08 10:29:04;;;;;;;11.35;2.90;;;;;;;23.77;29.51;103057.06;5095110;28;20050;-76
2022/05/08 10:32:01;;;;;;;16.10;3.00;;;;;;;23.41;30.27;103055.59;5113169;28;20196;-76
2022/05/08 10:34:34;;;;;;;7.50;2.60;;;;;;;24.19;28.74;103064.09;5056738;28;20047;-76
2022/05/08 10:37:12;;;;;;;11.13;3.15;;;;;;;23.23;28.43;103047.63;5112243;28;20087;-77
2022/05/08 10:39:42;;;;;;;12.80;2.70;;;;;;;23.93;29.91;103051.59;5094541;28;20055;-78
2022/05/08 10:42:23;;;;;;;13.25;3.00;;;;;;;24.11;29.75;103050.53;5095013;28;20126;-76
2022/05/08 10:44:49;;;;;;;13.13;2.50;;;;;;;24.59;28.92;103054.06;5112470;28;20039;-77
2022/05/08 10:47:33;;;;;;;11.07;2.60;;;;;;;25.32;26.99;103049.09;5094218;28;20392;-77
2022/05/08 10:49:59;;;;;;;9.50;2.45;;;;;;;25.40;27.13;103050.91;5094418;28;20357;-76
2022/05/08 10:52:25;;;;;;;14.02;2.75;;;;;;;24.89;27.18;103056.09;5077107;28;20035;-76
2022/05/08 10:55:02;;;;;;;9.02;2.63;;;;;;;25.51;27.39;103057.78;5112210;28;20348;-76
2022/05/08 10:57:32;;;;;;;6.63;2.45;;;;;;;25.07;26.38;103053.06;5112613;28;20424;-83
2022/05/08 10:59:58;;;;;;;9.00;2.37;;;;;;;24.91;27.40;103062.19;5094265;28;20432;-76
2022/05/08 11:02:41;;;;;;;10.55;2.55;;;;;;;25.51;24.93;103052.31;5094540;28;20366;-76
2022/05/08 11:05:12;;;;;;;8.48;2.53;;;;;;;26.07;25.63;103045.63;5094148;28;20039;-77
2022/05/08 11:07:40;;;;;;;7.97;2.53;;;;;;;25.49;26.77;103044.34;5112802;28;20028;-76
2022/05/08 11:10:23;;;;;;;6.57;2.45;;;;;;;24.19;26.74;103045.03;5112479;28;20036;-76
2022/05/08 11:13:10;;;;;;;7.30;2.58;;;;;;;23.47;27.82;103050.47;5112024;28;20561;-76
2022/05/08 11:15:38;;;;;;;9.32;2.45;;;;;;;24.90;26.35;103049.59;5093531;28;20024;-76
2022/05/08 11:18:09;;;;;;;7.55;2.40;;;;;;;24.73;25.34;103049.72;5093998;28;20032;-77
2022/05/08 11:20:44;;;;;;;7.88;2.38;;;;;;;25.49;25.84;103044.34;5112152;28;20019;-77
2022/05/08 11:23:14;;;;;;;11.80;2.85;;;;;;;25.44;26.77;103045.91;5093871;28;20096;-76
2022/05/08 11:25:43;;;;;;;8.95;2.40;;;;;;;25.47;27.41;103051.03;5094337;28;20024;-77
2022/05/08 11:28:14;;;;;;;11.85;2.30;;;;;;;24.87;26.61;103047.22;5094182;28;20141;-76
2022/05/08 11:30:40;;;;;;;7.60;2.63;;;;;;;25.45;26.56;103039.44;5093505;28;20471;-77
2022/05/08 11:36:07;;;;;;;4.95;2.05;;;;;;;24.82;25.92;103031.44;5111688;28;20197;-75
2022/05/08 11:38:48;;;;;;;5.93;2.10;;;;;;;25.10;26.81;103039.91;5093904;28;20456;-77
2022/05/08 11:41:16;;;;;;;8.95;2.33;;;;;;;25.40;25.19;103031.00;5093747;28;20031;-76
2022/05/08 11:43:45;;;;;;;6.93;2.13;;;;;;;25.67;24.78;103032.25;5093293;28;20390;-75
2022/05/08 11:46:16;;;;;;;5.88;2.00;;;;;;;26.15;25.38;103026.41;5112264;28;20051;-74
2022/05/08 11:48:47;;;;;;;7.45;2.10;;;;;;;25.06;25.25;103032.28;5112338;28;20120;-75
2022/05/08 11:51:20;;;;;;;7.10;2.00;;;;;;;24.43;26.04;103029.63;5112243;28;20031;-74
2022/05/08 11:53:45;;;;;;;7.82;2.13;;;;;;;24.46;26.21;103030.09;5111930;28;20031;-77